Time;durP1;ratioP1;P1;durP2;ratioP2;P2;SDS_P1;SDS_P2;PMS_P1;PMS_P2;Temp;Humidity;BMP_temperature;BMP_pressure;BME280_temperature;BME280_humidity;BME280_pressure;Samples;Min_cycle;Max_cycle;Signal;HPM_P1;HPM_P2
2022/12/11 00:01:30;;;;;;;20.02;6.93;;;1.40;97.20;;;;;;6264898;22;20094;-87
2022/12/11 00:03:57;;;;;;;14.33;5.27;;;1.40;97.40;;;;;;6311292;22;20021;-84
2022/12/11 00:06:32;;;;;;;17.80;5.03;;;1.40;97.20;;;;;;6313027;22;20038;-85
2022/12/11 00:09:02;;;;;;;20.60;5.50;;;1.40;97.20;;;;;;6286321;22;20026;-87
2022/12/11 00:11:32;;;;;;;14.82;4.38;;;1.40;97.20;;;;;;6286150;22;20026;-86
2022/12/11 00:14:04;;;;;;;17.57;5.20;;;1.40;97.20;;;;;;6311634;22;20018;-87
2022/12/11 00:16:40;;;;;;;16.02;5.03;;;1.40;97.20;;;;;;6288757;22;20011;-87
2022/12/11 00:19:08;;;;;;;15.32;4.38;;;1.40;97.20;;;;;;6286132;22;20023;-87
2022/12/11 00:21:45;;;;;;;12.17;3.70;;;1.40;97.20;;;;;;6312179;22;20366;-86
2022/12/11 00:24:27;;;;;;;12.60;3.65;;;1.50;97.20;;;;;;6288765;22;20023;-83
2022/12/11 00:27:01;;;;;;;15.53;4.03;;;1.50;97.20;;;;;;6286988;22;20033;-85
2022/12/11 00:29:29;;;;;;;11.10;3.60;;;1.50;97.20;;;;;;6311302;22;20015;-87
2022/12/11 00:32:01;;;;;;;12.90;3.60;;;1.50;97.20;;;;;;6285758;22;20027;-86
2022/12/11 00:34:30;;;;;;;13.23;4.40;;;1.50;97.20;;;;;;6285641;22;20023;-91
2022/12/11 00:36:57;;;;;;;14.23;4.60;;;1.50;97.20;;;;;;6259756;22;20040;-83
2022/12/11 00:39:27;;;;;;;17.90;5.67;;;1.50;97.20;;;;;;6236860;22;20022;-82
2022/12/11 00:41:57;;;;;;;19.40;5.83;;;1.50;97.20;;;;;;6260608;22;20101;-84
2022/12/11 00:44:24;;;;;;;26.43;9.07;;;1.50;97.20;;;;;;6235402;22;20019;-79
2022/12/11 00:46:51;;;;;;;20.90;7.63;;;1.50;97.10;;;;;;6285202;22;20371;-80
2022/12/11 00:49:18;;;;;;;19.57;7.03;;;1.50;97.10;;;;;;6259726;22;20360;-80
2022/12/11 00:51:45;;;;;;;21.83;6.73;;;1.40;97.10;;;;;;6259935;22;20049;-80
2022/12/11 00:54:12;;;;;;;19.20;6.30;;;1.50;97.20;;;;;;6234481;22;20472;-79
2022/12/11 00:56:38;;;;;;;19.87;6.93;;;1.50;97.20;;;;;;6259510;22;20026;-79
2022/12/11 00:59:05;;;;;;;20.70;6.20;;;1.50;97.20;;;;;;6310839;22;20015;-79
2022/12/11 01:01:33;;;;;;;16.40;5.97;;;1.50;97.20;;;;;;6234542;22;20019;-80
2022/12/11 01:04:00;;;;;;;13.40;4.50;;;1.50;97.20;;;;;;6284621;22;20030;-80
2022/12/11 01:06:27;;;;;;;13.10;4.07;;;1.50;97.20;;;;;;6286600;22;20097;-80
2022/12/11 01:11:42;;;;;;;14.67;3.67;;;1.50;97.20;;;;;;6312371;22;20023;-80
2022/12/11 01:14:10;;;;;;;19.37;5.13;;;1.60;97.20;;;;;;6261186;22;20084;-80
2022/12/11 01:16:37;;;;;;;15.17;4.87;;;1.50;97.10;;;;;;6236333;22;20357;-79
2022/12/11 01:19:04;;;;;;;21.70;6.32;;;1.60;97.20;;;;;;6261797;22;20030;-80
2022/12/11 01:21:31;;;;;;;17.15;6.07;;;1.60;97.20;;;;;;6261334;22;20025;-80
2022/12/11 01:23:58;;;;;;;21.05;6.95;;;1.50;97.10;;;;;;6261138;22;20404;-80
2022/12/11 01:26:25;;;;;;;16.63;5.33;;;1.50;97.20;;;;;;6286727;22;20025;-79
2022/12/11 01:28:54;;;;;;;17.23;4.85;;;1.50;97.20;;;;;;6286684;22;20322;-80
2022/12/11 01:31:22;;;;;;;17.15;4.65;;;1.60;97.20;;;;;;6286517;22;20456;-80
2022/12/11 01:33:48;;;;;;;15.53;5.03;;;1.60;97.20;;;;;;6286188;22;20037;-80
2022/12/11 01:36:18;;;;;;;16.77;6.35;;;1.60;97.20;;;;;;6312490;22;20095;-80
2022/12/11 01:38:46;;;;;;;18.70;5.63;;;1.60;97.20;;;;;;6286619;22;20019;-80
2022/12/11 01:41:15;;;;;;;14.60;4.57;;;1.60;97.30;;;;;;6261684;22;20026;-80
2022/12/11 01:44:00;;;;;;;15.32;4.93;;;1.60;97.20;;;;;;6311871;22;20348;-80
2022/12/11 01:46:29;;;;;;;20.25;5.55;;;1.60;97.20;;;;;;6339740;22;20090;-81
2022/12/11 01:48:57;;;;;;;17.08;5.43;;;1.60;97.20;;;;;;6286003;22;20101;-80
2022/12/11 01:51:25;;;;;;;17.27;5.05;;;1.60;97.20;;;;;;6261307;22;20382;-80
2022/12/11 01:54:04;;;;;;;15.55;6.40;;;1.60;97.20;;;;;;6260990;22;20022;-80
2022/12/11 01:56:33;;;;;;;12.02;4.43;;;1.70;97.20;;;;;;6286119;22;20027;-81
2022/12/11 01:59:06;;;;;;;15.90;5.28;;;1.60;97.20;;;;;;6261092;22;20022;-80
2022/12/11 02:01:36;;;;;;;;;;;1.70;97.20;;;;;;6312354;22;20054;-80
2022/12/11 02:04:05;;;;;;;13.77;4.13;;;1.60;97.20;;;;;;6311830;22;20294;-80
2022/12/11 02:06:44;;;;;;;18.20;5.50;;;1.60;97.20;;;;;;6286365;22;20022;-81
2022/12/11 02:09:15;;;;;;;20.73;5.77;;;1.70;97.20;;;;;;6312052;22;20019;-80
2022/12/11 02:11:56;;;;;;;21.58;6.68;;;1.60;97.20;;;;;;6286223;22;20375;-80
2022/12/11 02:14:38;;;;;;;17.93;5.50;;;1.60;97.10;;;;;;6311632;22;20479;-80
2022/12/11 02:17:13;;;;;;;24.42;8.15;;;1.60;97.20;;;;;;6285185;22;20018;-80
2022/12/11 02:19:50;;;;;;;22.85;7.55;;;1.60;97.10;;;;;;6311402;22;20019;-81
2022/12/11 02:22:57;;;;;;;23.60;8.23;;;1.60;97.10;;;;;;6339181;22;20011;-80
2022/12/11 02:25:33;;;;;;;26.85;7.43;;;1.60;97.10;;;;;;6260917;22;20052;-80
2022/12/11 02:28:15;;;;;;;26.30;7.82;;;1.60;97.20;;;;;;6311881;22;20019;-80
2022/12/11 02:31:08;;;;;;;24.90;7.75;;;1.60;97.20;;;;;;6311410;22;20019;-80
2022/12/11 02:33:47;;;;;;;20.38;6.07;;;1.60;97.20;;;;;;6261966;22;20028;-80
2022/12/11 02:36:20;;;;;;;21.77;6.40;;;1.60;97.20;;;;;;6281373;22;20023;-80
2022/12/11 02:38:50;;;;;;;20.43;6.50;;;1.60;97.20;;;;;;6281141;22;20061;-81
2022/12/11 02:41:20;;;;;;;16.80;5.20;;;1.60;97.20;;;;;;6280868;22;20023;-80
2022/12/11 02:43:49;;;;;;;18.25;5.18;;;1.60;97.20;;;;;;6255568;22;20019;-80
2022/12/11 02:46:18;;;;;;;25.23;7.35;;;1.60;97.20;;;;;;6306844;22;20090;-80
2022/12/11 02:48:48;;;;;;;22.80;7.83;;;1.60;97.20;;;;;;6280384;22;20019;-80
2022/12/11 02:51:20;;;;;;;24.10;6.80;;;1.60;97.20;;;;;;6280771;22;20019;-80
2022/12/11 02:53:49;;;;;;;23.85;7.68;;;1.60;97.20;;;;;;6256440;22;20051;-80
2022/12/11 02:56:23;;;;;;;17.55;5.60;;;1.60;97.20;;;;;;6280669;22;20025;-80
2022/12/11 02:59:00;;;;;;;19.02;6.05;;;1.60;97.30;;;;;;6307107;22;20011;-80
2022/12/11 03:01:27;;;;;;;24.20;6.97;;;1.60;97.30;;;;;;6305842;22;20441;-80
2022/12/11 03:03:55;;;;;;;19.75;5.68;;;1.60;97.30;;;;;;6280458;22;20020;-80
2022/12/11 03:06:30;;;;;;;17.10;4.75;;;1.60;97.30;;;;;;6306509;22;20015;-80
2022/12/11 03:08:57;;;;;;;21.30;5.60;;;1.70;97.30;;;;;;6305928;22;20106;-80
2022/12/11 03:11:24;;;;;;;13.38;4.70;;;1.60;97.30;;;;;;6280548;22;20023;-80
2022/12/11 03:13:53;;;;;;;25.27;7.30;;;1.70;97.30;;;;;;6280593;22;20391;-80
2022/12/11 03:16:46;;;;;;;24.60;8.02;;;1.70;97.30;;;;;;6254863;22;20453;-80
2022/12/11 03:19:25;;;;;;;29.83;9.35;;;1.60;97.20;;;;;;6305714;22;20022;-80
2022/12/11 03:22:22;;;;;;;26.65;8.20;;;1.60;97.20;;;;;;6305860;22;20106;-80
2022/12/11 03:25:14;;;;;;;22.00;7.15;;;1.60;97.20;;;;;;6280077;22;20026;-80
2022/12/11 03:27:54;;;;;;;23.00;6.85;;;1.60;97.30;;;;;;6280577;22;20025;-80
2022/12/11 03:30:23;;;;;;;22.15;6.75;;;1.60;97.30;;;;;;6305359;22;20019;-80
2022/12/11 03:33:12;;;;;;;25.20;6.33;;;1.60;97.30;;;;;;6305876;22;20080;-81
2022/12/11 03:35:43;;;;;;;19.43;6.13;;;1.60;97.30;;;;;;6305848;22;20073;-80
2022/12/11 03:38:17;;;;;;;18.98;5.65;;;1.60;97.30;;;;;;6305754;22;20551;-80
2022/12/11 03:40:47;;;;;;;17.23;6.57;;;1.60;97.30;;;;;;6305884;22;20019;-80
2022/12/11 03:43:16;;;;;;;16.75;5.13;;;1.70;97.30;;;;;;6305721;22;20068;-80
2022/12/11 03:45:45;;;;;;;15.83;5.03;;;1.70;97.30;;;;;;6280260;22;20339;-79
2022/12/11 03:48:15;;;;;;;16.92;5.40;;;1.70;97.40;;;;;;6305604;22;20027;-80
2022/12/11 03:50:44;;;;;;;21.92;5.30;;;1.70;97.40;;;;;;6254794;22;20050;-79
2022/12/11 03:53:11;;;;;;;19.75;6.35;;;1.70;97.30;;;;;;6280349;22;20023;-80
2022/12/11 03:55:39;;;;;;;15.45;5.25;;;1.80;97.30;;;;;;6279692;22;20090;-80
2022/12/11 03:58:06;;;;;;;16.05;4.43;;;1.70;97.30;;;;;;6305481;22;20435;-80
2022/12/11 04:00:33;;;;;;;16.73;4.40;;;1.70;97.30;;;;;;6229390;22;20102;-80
2022/12/11 04:03:12;;;;;;;12.87;4.43;;;1.80;97.40;;;;;;6254591;22;20077;-80
2022/12/11 04:05:49;;;;;;;10.70;3.53;;;1.80;97.40;;;;;;6305514;22;20065;-80
2022/12/11 04:08:19;;;;;;;13.05;4.07;;;1.80;97.30;;;;;;6305739;22;20102;-80
2022/12/11 04:13:39;;;;;;;18.25;5.05;;;1.80;97.60;;;;;;6305503;22;20030;-79
2022/12/11 04:16:06;;;;;;;21.08;6.15;;;1.80;97.30;;;;;;6280439;22;20084;-80
2022/12/11 04:24:15;;;;;;;14.60;4.13;;;1.80;97.30;;;;;;6284453;22;20058;-80
2022/12/11 04:26:45;;;;;;;11.45;3.88;;;1.90;97.30;;;;;;6280378;22;20333;-80
2022/12/11 04:29:13;;;;;;;15.25;4.25;;;1.90;97.40;;;;;;6279819;22;20019;-80
2022/12/11 04:31:40;;;;;;;10.40;2.80;;;1.90;97.40;;;;;;6279461;22;20023;-80
2022/12/11 04:34:08;;;;;;;15.10;4.45;;;1.90;97.40;;;;;;6305182;22;20025;-80
2022/12/11 04:36:40;;;;;;;15.80;5.45;;;1.90;97.30;;;;;;6305338;22;20020;-79
2022/12/11 04:39:07;;;;;;;13.25;4.53;;;1.90;97.30;;;;;;6254084;22;20022;-79
2022/12/11 04:41:34;;;;;;;15.23;4.38;;;1.90;97.30;;;;;;6231361;22;20114;-80
2022/12/11 04:44:01;;;;;;;12.17;3.70;;;1.90;97.30;;;;;;6256477;22;20102;-79
2022/12/11 04:46:28;;;;;;;16.27;4.93;;;1.90;97.40;;;;;;6281900;22;20039;-79
2022/12/11 04:48:55;;;;;;;18.40;4.72;;;1.90;97.40;;;;;;6281871;22;20058;-79
2022/12/11 04:51:24;;;;;;;10.77;3.55;;;2.00;97.40;;;;;;6257270;22;20047;-79
2022/12/11 04:53:51;;;;;;;14.23;3.67;;;1.90;97.40;;;;;;6281933;22;20026;-79
2022/12/11 04:56:18;;;;;;;11.60;3.75;;;2.00;97.40;;;;;;6281803;22;20022;-80
2022/12/11 04:58:46;;;;;;;9.13;3.28;;;2.00;97.40;;;;;;6306929;22;20015;-80
2022/12/11 05:01:19;;;;;;;13.68;4.78;;;2.00;97.40;;;;;;6307363;22;20011;-80
2022/12/11 05:03:46;;;;;;;13.13;3.58;;;2.00;97.70;;;;;;6307452;22;20019;-80
2022/12/11 05:06:14;;;;;;;13.47;3.57;;;2.00;97.40;;;;;;6281694;22;20019;-80
2022/12/11 05:08:41;;;;;;;14.05;3.80;;;2.00;97.40;;;;;;6307190;22;20023;-80
2022/12/11 05:11:11;;;;;;;16.13;5.47;;;2.00;97.40;;;;;;6281672;22;20085;-79
2022/12/11 05:13:38;;;;;;;13.93;4.85;;;2.00;97.30;;;;;;6307654;22;20023;-79
2022/12/11 05:16:10;;;;;;;12.15;3.97;;;2.00;97.30;;;;;;6281769;22;20023;-79
2022/12/11 05:18:37;;;;;;;14.77;4.38;;;2.00;97.30;;;;;;6282189;22;20065;-80
2022/12/11 05:21:07;;;;;;;14.80;4.32;;;2.00;97.30;;;;;;6256155;22;20011;-80
2022/12/11 05:23:34;;;;;;;15.93;5.67;;;2.00;97.30;;;;;;6307013;22;20096;-79
2022/12/11 05:26:05;;;;;;;20.38;6.13;;;2.00;97.30;;;;;;6281722;22;20019;-80
2022/12/11 05:28:35;;;;;;;21.60;8.30;;;2.00;97.30;;;;;;6308439;22;20069;-79
2022/12/11 05:31:05;;;;;;;17.83;6.32;;;2.00;97.30;;;;;;6306664;22;20023;-81
2022/12/11 05:33:33;;;;;;;17.77;6.90;;;2.00;97.30;;;;;;6306473;22;20464;-79
2022/12/11 05:36:01;;;;;;;19.95;7.47;;;2.00;97.30;;;;;;6306877;22;20031;-78
2022/12/11 05:38:28;;;;;;;20.57;7.93;;;2.00;97.30;;;;;;6281168;22;20376;-79
2022/12/11 05:40:57;;;;;;;20.77;7.77;;;2.00;97.20;;;;;;6281216;22;20019;-79
2022/12/11 05:43:26;;;;;;;20.70;7.40;;;2.00;97.20;;;;;;6308122;22;20019;-79
2022/12/11 05:45:55;;;;;;;17.30;6.80;;;2.00;97.20;;;;;;6306670;22;20046;-79
2022/12/11 05:48:22;;;;;;;19.90;7.03;;;2.00;97.30;;;;;;6306616;22;20073;-79
2022/12/11 05:50:57;;;;;;;17.17;6.30;;;2.00;97.20;;;;;;6280838;22;20029;-79
2022/12/11 05:53:24;;;;;;;18.10;6.97;;;2.00;97.20;;;;;;6255811;22;20072;-78
2022/12/11 05:55:51;;;;;;;17.48;6.63;;;2.00;97.20;;;;;;6255727;22;20031;-79
2022/12/11 05:58:20;;;;;;;23.60;8.95;;;2.00;97.20;;;;;;6281251;22;20016;-79
2022/12/11 06:00:47;;;;;;;18.17;6.85;;;2.00;97.20;;;;;;6280983;22;20106;-78
2022/12/11 06:03:14;;;;;;;19.33;7.70;;;2.00;97.20;;;;;;6281060;22;20445;-79
2022/12/11 06:05:42;;;;;;;17.63;6.53;;;2.00;97.20;;;;;;6255317;22;20016;-78
2022/12/11 06:08:09;;;;;;;15.68;6.20;;;2.00;97.20;;;;;;6255943;22;20112;-79
2022/12/11 06:10:36;;;;;;;16.92;6.82;;;2.00;97.20;;;;;;6255930;22;20024;-79
2022/12/11 06:13:03;;;;;;;18.13;6.75;;;2.00;97.20;;;;;;6255660;22;20047;-79
2022/12/11 06:15:31;;;;;;;18.10;7.10;;;2.00;97.20;;;;;;6280930;22;20323;-79
2022/12/11 06:17:58;;;;;;;18.38;6.20;;;2.00;97.20;;;;;;6255053;22;20382;-79
2022/12/11 06:20:25;;;;;;;18.92;7.10;;;2.00;97.20;;;;;;6280256;22;20019;-79
2022/12/11 06:22:53;;;;;;;21.85;7.32;;;2.00;97.20;;;;;;6255935;22;20019;-79
2022/12/11 06:25:20;;;;;;;24.38;9.13;;;2.00;97.20;;;;;;6230754;22;20019;-79
2022/12/11 06:27:47;;;;;;;27.90;11.50;;;2.00;97.20;;;;;;6255365;22;20019;-79
2022/12/11 06:30:15;;;;;;;26.27;9.05;;;1.90;97.10;;;;;;6280563;22;20023;-79
2022/12/11 06:32:43;;;;;;;19.60;8.37;;;1.90;97.10;;;;;;6280954;22;20019;-79
2022/12/11 06:35:10;;;;;;;23.15;8.55;;;1.90;97.10;;;;;;6305912;22;20098;-78
2022/12/11 06:37:41;;;;;;;20.27;7.75;;;1.90;97.10;;;;;;6255729;22;20027;-79
2022/12/11 06:40:10;;;;;;;17.40;6.90;;;1.90;97.40;;;;;;6280764;22;20068;-79
2022/12/11 06:42:37;;;;;;;17.77;7.67;;;2.00;97.20;;;;;;6306251;22;20050;-79
2022/12/11 06:45:05;;;;;;;19.88;7.70;;;2.00;97.20;;;;;;6280517;22;20102;-79
2022/12/11 06:47:32;;;;;;;24.02;9.60;;;2.00;97.20;;;;;;6306139;22;20366;-79
2022/12/11 06:50:00;;;;;;;25.48;10.60;;;1.90;97.10;;;;;;6280571;22;20026;-79
2022/12/11 06:52:27;;;;;;;30.98;13.05;;;1.90;97.10;;;;;;6306192;22;20065;-79
2022/12/11 06:54:55;;;;;;;32.53;13.95;;;1.90;97.00;;;;;;6306018;22;20079;-79
2022/12/11 06:57:22;;;;;;;30.15;12.77;;;1.90;97.00;;;;;;6305844;22;20475;-79
2022/12/11 06:59:49;;;;;;;29.33;10.45;;;1.80;96.90;;;;;;6306065;22;20069;-78
2022/12/11 07:02:18;;;;;;;25.50;10.32;;;1.90;97.00;;;;;;6255254;22;20452;-79
2022/12/11 07:04:46;;;;;;;23.03;10.53;;;1.80;97.00;;;;;;6280611;22;20437;-79
2022/12/11 07:07:20;;;;;;;26.13;11.52;;;1.90;97.00;;;;;;6258241;22;20015;-79
2022/12/11 07:09:48;;;;;;;28.38;11.25;;;1.80;96.90;;;;;;6305994;22;20038;-80
2022/12/11 07:12:16;;;;;;;26.25;10.43;;;1.80;96.90;;;;;;6230252;22;20076;-79
2022/12/11 07:14:43;;;;;;;28.52;11.52;;;1.80;96.90;;;;;;6280335;22;20110;-79
2022/12/11 07:17:10;;;;;;;25.73;10.57;;;1.80;96.90;;;;;;6280445;22;20022;-79
2022/12/11 07:19:36;;;;;;;24.80;10.75;;;1.80;96.90;;;;;;6280176;22;20435;-79
2022/12/11 07:22:03;;;;;;;24.80;10.25;;;1.80;96.90;;;;;;6255082;22;20070;-79
2022/12/11 07:24:30;;;;;;;21.07;8.83;;;1.80;96.90;;;;;;6229899;22;20015;-79
2022/12/11 07:26:58;;;;;;;22.42;8.88;;;1.80;96.90;;;;;;6280213;22;20095;-79
2022/12/11 07:29:27;;;;;;;20.10;7.70;;;1.80;96.90;;;;;;6307397;22;20345;-79
2022/12/11 07:31:54;;;;;;;21.80;9.23;;;1.80;96.90;;;;;;6230214;22;20023;-79
2022/12/11 07:34:21;;;;;;;19.35;7.72;;;1.80;96.90;;;;;;6279933;22;20027;-79
2022/12/11 07:36:48;;;;;;;23.67;9.17;;;1.80;96.90;;;;;;6254941;22;20053;-79
2022/12/11 07:39:15;;;;;;;20.60;9.07;;;1.80;96.90;;;;;;6280092;22;20025;-79
2022/12/11 07:41:42;;;;;;;20.90;8.63;;;1.80;96.80;;;;;;6254880;22;20019;-79
2022/12/11 07:44:09;;;;;;;22.23;8.63;;;1.70;96.80;;;;;;6230291;22;20385;-79
2022/12/11 07:46:36;;;;;;;21.60;8.87;;;1.70;96.80;;;;;;6305503;22;20019;-79
2022/12/11 07:49:05;;;;;;;20.60;8.63;;;1.70;96.80;;;;;;6305481;22;20022;-79
2022/12/11 07:51:34;;;;;;;22.70;10.30;;;1.70;96.80;;;;;;6305806;22;20043;-79
2022/12/11 07:54:05;;;;;;;24.10;9.50;;;1.70;96.80;;;;;;6305516;22;20137;-79
2022/12/11 07:56:33;;;;;;;21.15;10.00;;;1.70;96.70;;;;;;6307009;22;20095;-79
2022/12/11 07:59:03;;;;;;;20.33;8.90;;;1.70;96.70;;;;;;6305698;22;20392;-79
2022/12/11 08:01:34;;;;;;;28.50;10.47;;;1.70;96.80;;;;;;6305495;22;20369;-79
2022/12/11 08:04:04;;;;;;;20.90;8.53;;;1.70;96.80;;;;;;6280132;22;20023;-79
2022/12/11 08:06:33;;;;;;;20.97;9.40;;;1.70;96.70;;;;;;6305364;22;20019;-79
2022/12/11 08:09:03;;;;;;;17.17;7.30;;;1.70;96.70;;;;;;6254705;22;20098;-79
2022/12/11 08:11:30;;;;;;;18.80;7.47;;;1.70;96.70;;;;;;6305357;22;20015;-80
2022/12/11 08:13:58;;;;;;;20.33;8.10;;;1.70;96.70;;;;;;6279659;22;20015;-78
2022/12/11 08:16:26;;;;;;;19.53;7.83;;;1.70;96.70;;;;;;6229652;22;20378;-78
2022/12/11 08:18:53;;;;;;;17.53;8.43;;;1.70;96.70;;;;;;6305384;22;20019;-82
2022/12/11 08:21:23;;;;;;;18.50;7.93;;;1.70;96.70;;;;;;6254339;22;20038;-81
2022/12/11 08:23:51;;;;;;;17.43;7.43;;;1.70;96.70;;;;;;6305418;22;20456;-82
2022/12/11 08:26:21;;;;;;;19.43;8.40;;;1.70;96.60;;;;;;6280015;22;20015;-79
2022/12/11 08:28:48;;;;;;;22.48;9.45;;;1.70;96.50;;;;;;6279676;22;20023;-80
2022/12/11 08:31:16;;;;;;;24.30;11.03;;;1.70;96.50;;;;;;6254803;22;20437;-81
2022/12/11 08:33:43;;;;;;;23.60;10.53;;;1.70;96.50;;;;;;6254257;22;20330;-80
2022/12/11 08:36:14;;;;;;;22.17;9.53;;;1.70;96.40;;;;;;6279339;22;20476;-80
2022/12/11 08:38:41;;;;;;;22.70;10.77;;;1.70;96.40;;;;;;6305046;22;20059;-80
2022/12/11 08:41:17;;;;;;;23.67;10.23;;;1.70;96.40;;;;;;6279537;22;20460;-80
2022/12/11 08:43:44;;;;;;;19.00;8.57;;;1.70;96.40;;;;;;6279536;22;20026;-80
2022/12/11 08:46:12;;;;;;;16.90;7.33;;;1.70;96.40;;;;;;6254242;22;20102;-81
2022/12/11 08:48:42;;;;;;;13.90;6.68;;;1.70;96.40;;;;;;6280056;22;20046;-81
2022/12/11 08:51:14;;;;;;;12.77;5.65;;;1.80;96.40;;;;;;6279619;22;20060;-81
2022/12/11 08:53:44;;;;;;;19.23;8.00;;;1.80;96.40;;;;;;6304938;22;20023;-81
2022/12/11 08:56:13;;;;;;;20.63;8.95;;;1.80;96.40;;;;;;6254512;22;20085;-80
2022/12/11 08:58:40;;;;;;;21.05;9.13;;;1.80;96.30;;;;;;6305387;22;20019;-82
2022/12/11 09:01:17;;;;;;;23.52;10.15;;;1.70;96.20;;;;;;6304945;22;20015;-81
2022/12/11 09:03:44;;;;;;;18.48;8.40;;;1.80;96.20;;;;;;6304760;22;20023;-80
2022/12/11 09:06:14;;;;;;;16.47;7.43;;;1.80;96.30;;;;;;6279246;22;20054;-80
2022/12/11 09:08:42;;;;;;;13.33;6.00;;;1.80;96.30;;;;;;6279284;22;20077;-80
2022/12/11 09:11:21;;;;;;;14.57;6.83;;;1.80;96.30;;;;;;6234339;22;20016;-81
2022/12/11 09:13:48;;;;;;;10.93;5.50;;;1.90;96.30;;;;;;6305252;22;20102;-81
2022/12/11 09:16:17;;;;;;;11.27;4.77;;;1.90;96.30;;;;;;6279394;22;20110;-81
2022/12/11 09:18:46;;;;;;;11.77;5.00;;;1.90;96.40;;;;;;6279391;22;20102;-81
2022/12/11 09:21:16;;;;;;;11.65;4.70;;;1.90;96.40;;;;;;6304912;22;20098;-80
2022/12/11 09:23:43;;;;;;;9.38;3.97;;;2.00;96.40;;;;;;6304880;22;20027;-80
2022/12/11 09:26:13;;;;;;;9.67;4.07;;;2.00;96.40;;;;;;6305746;22;20077;-82
2022/12/11 09:28:44;;;;;;;10.30;4.22;;;2.00;96.40;;;;;;6306662;22;20068;-82
2022/12/11 09:31:19;;;;;;;11.60;4.07;;;2.10;96.40;;;;;;6231963;22;20023;-81
2022/12/11 09:33:47;;;;;;;9.17;3.47;;;2.10;96.30;;;;;;6306452;22;20057;-82
2022/12/11 09:36:14;;;;;;;9.37;3.93;;;2.10;96.30;;;;;;6230829;22;20023;-82
2022/12/11 09:38:43;;;;;;;8.73;3.57;;;2.10;96.30;;;;;;6281089;22;20031;-81
2022/12/11 09:41:20;;;;;;;9.47;3.87;;;2.10;96.30;;;;;;6255470;22;20019;-81
2022/12/11 09:44:06;;;;;;;7.87;3.07;;;2.10;96.30;;;;;;6281398;22;20015;-82
2022/12/11 09:46:39;;;;;;;7.22;2.95;;;2.20;96.30;;;;;;6306959;22;20018;-82
2022/12/11 09:49:22;;;;;;;8.20;3.38;;;2.20;96.30;;;;;;6281074;22;20475;-81
2022/12/11 09:52:02;;;;;;;7.70;3.13;;;2.20;96.30;;;;;;6306922;22;20022;-81
2022/12/11 09:54:29;;;;;;;7.75;2.83;;;2.20;96.30;;;;;;6306763;22;20016;-81
2022/12/11 09:57:08;;;;;;;8.02;3.47;;;2.20;96.30;;;;;;6255830;22;20023;-81
2022/12/11 10:00:04;;;;;;;8.90;3.97;;;2.20;96.30;;;;;;6306428;22;20022;-82
2022/12/11 10:02:52;;;;;;;9.57;3.80;;;2.20;96.20;;;;;;6281123;22;20383;-82
2022/12/11 10:05:29;;;;;;;7.80;3.05;;;2.30;96.20;;;;;;6306694;22;20388;-82
2022/12/11 10:08:08;;;;;;;8.77;3.50;;;2.30;96.20;;;;;;6306631;22;20520;-82
2022/12/11 10:10:43;;;;;;;8.88;3.85;;;2.30;96.20;;;;;;6306580;22;20110;-81
2022/12/11 10:13:32;;;;;;;8.73;3.10;;;2.30;96.20;;;;;;6306415;22;20322;-81
2022/12/11 10:16:13;;;;;;;6.80;2.53;;;2.30;96.20;;;;;;6306479;22;20382;-82
2022/12/11 10:18:42;;;;;;;7.40;3.15;;;2.30;96.20;;;;;;6306311;22;20034;-82
2022/12/11 10:21:13;;;;;;;8.57;3.47;;;2.30;96.20;;;;;;6255895;22;20011;-81
2022/12/11 10:24:03;;;;;;;11.27;5.30;;;2.30;96.20;;;;;;6306298;22;20019;-81
2022/12/11 10:26:30;;;;;;;10.07;3.95;;;2.30;96.10;;;;;;6279281;22;20065;-81
2022/12/11 10:29:01;;;;;;;9.48;4.28;;;2.40;96.10;;;;;;6255303;22;20025;-82
2022/12/11 10:31:55;;;;;;;10.43;3.73;;;2.40;96.10;;;;;;6230120;22;20123;-81
2022/12/11 10:34:36;;;;;;;9.90;3.80;;;2.40;96.10;;;;;;6306189;22;20030;-82
2022/12/11 10:37:03;;;;;;;8.40;3.35;;;2.50;96.10;;;;;;6306130;22;20065;-81
2022/12/11 10:39:30;;;;;;;8.60;3.50;;;2.50;96.10;;;;;;6255246;22;20021;-81
2022/12/11 10:41:57;;;;;;;8.02;3.05;;;2.50;96.10;;;;;;6280717;22;20347;-81
2022/12/11 10:44:28;;;;;;;10.65;3.85;;;2.50;96.00;;;;;;6280493;22;20015;-81
2022/12/11 10:47:17;;;;;;;9.10;3.75;;;2.50;96.00;;;;;;6306112;22;20019;-81
2022/12/11 10:49:58;;;;;;;12.20;5.07;;;2.50;96.20;;;;;;6256028;22;20489;-81
2022/12/11 10:52:40;;;;;;;10.00;4.65;;;2.50;95.90;;;;;;6306289;22;20094;-81
2022/12/11 10:55:26;;;;;;;10.30;4.20;;;2.50;95.90;;;;;;6281074;22;20027;-82
2022/12/11 10:57:57;;;;;;;9.20;4.47;;;2.50;95.90;;;;;;6306148;22;20460;-89
2022/12/11 11:01:12;;;;;;;10.07;4.35;;;2.50;95.90;;;;;;6280651;22;20016;-82
2022/12/11 11:03:56;;;;;;;11.57;4.55;;;2.50;95.90;;;;;;6163260;23;20025;-83
2022/12/11 11:06:29;;;;;;;11.48;5.13;;;2.50;95.90;;;;;;6305982;22;20018;-82
2022/12/11 11:08:58;;;;;;;11.02;4.93;;;2.50;95.90;;;;;;6280318;22;20043;-81
2022/12/11 11:11:32;;;;;;;9.32;3.95;;;2.50;96.10;;;;;;6305785;22;20101;-82
2022/12/11 11:14:20;;;;;;;11.13;4.85;;;2.60;95.90;;;;;;6305824;22;20023;-82
2022/12/11 11:16:50;;;;;;;9.90;3.85;;;2.60;95.90;;;;;;6305971;22;20106;-82
2022/12/11 11:19:35;;;;;;;9.00;3.92;;;2.60;95.90;;;;;;6279959;22;20027;-82
2022/12/11 11:22:11;;;;;;;6.72;3.30;;;2.70;95.90;;;;;;6305869;22;20336;-81
2022/12/11 11:24:43;;;;;;;9.32;3.80;;;2.70;95.90;;;;;;6305844;22;20019;-81
2022/12/11 11:27:20;;;;;;;10.55;5.03;;;2.70;95.90;;;;;;6305814;22;20094;-83
2022/12/11 11:29:54;;;;;;;10.13;4.22;;;2.70;95.90;;;;;;6305588;22;20057;-82
2022/12/11 11:32:37;;;;;;;9.05;3.75;;;2.70;95.90;;;;;;6305526;22;20465;-82
2022/12/11 11:35:18;;;;;;;10.30;4.63;;;2.70;95.90;;;;;;6305639;22;20110;-82
2022/12/11 11:37:55;;;;;;;10.13;4.95;;;2.70;95.90;;;;;;6280035;22;20458;-82
2022/12/11 11:40:35;;;;;;;12.18;5.57;;;2.70;95.90;;;;;;6305715;22;20074;-82
2022/12/11 11:43:27;;;;;;;11.93;5.32;;;2.70;95.90;;;;;;6280047;22;20046;-82
2022/12/11 11:46:24;;;;;;;11.35;5.22;;;2.60;95.80;;;;;;6279898;22;20399;-81
2022/12/11 11:49:15;;;;;;;10.00;4.32;;;2.70;95.90;;;;;;6251926;22;20122;-82
2022/12/11 11:51:48;;;;;;;11.48;5.32;;;2.70;95.90;;;;;;6279864;22;20026;-82
2022/12/11 11:54:45;;;;;;;12.07;5.15;;;2.70;95.90;;;;;;6305588;22;20054;-82
2022/12/11 11:57:36;;;;;;;11.77;5.75;;;2.70;95.80;;;;;;6305476;22;20035;-82
2022/12/11 12:00:19;;;;;;;11.73;5.53;;;2.70;95.80;;;;;;6305273;22;20015;-81
2022/12/11 12:02:56;;;;;;;11.88;5.40;;;2.70;95.80;;;;;;6279844;22;20019;-81
2022/12/11 12:05:28;;;;;;;10.00;4.75;;;2.60;95.80;;;;;;6305463;22;20065;-81
2022/12/11 12:08:13;;;;;;;12.20;6.50;;;2.60;95.80;;;;;;6305463;22;20345;-81
2022/12/11 12:11:03;;;;;;;9.70;4.70;;;2.60;95.70;;;;;;6305446;22;20098;-81
2022/12/11 12:13:49;;;;;;;10.25;5.10;;;2.60;95.80;;;;;;6305842;22;20023;-81
2022/12/11 12:16:51;;;;;;;12.93;6.20;;;2.60;95.80;;;;;;6305272;22;20027;-82
2022/12/11 12:19:51;;;;;;;10.77;4.88;;;2.60;95.70;;;;;;6305286;22;20073;-82
2022/12/11 12:22:37;;;;;;;8.50;3.45;;;2.60;95.80;;;;;;6305387;22;20015;-81
2022/12/11 12:25:30;;;;;;;9.13;3.40;;;2.60;95.80;;;;;;6305829;22;20042;-82
2022/12/11 12:28:35;;;;;;;10.73;5.03;;;2.70;95.70;;;;;;6226913;22;20026;-82
2022/12/11 12:31:12;;;;;;;8.50;3.60;;;2.70;95.70;;;;;;6305250;22;20027;-82
2022/12/11 12:33:57;;;;;;;8.77;3.70;;;2.60;95.80;;;;;;6279131;22;20023;-81
2022/12/11 12:36:45;;;;;;;8.43;3.53;;;2.60;95.70;;;;;;6305538;22;20024;-81
2022/12/11 12:39:37;;;;;;;8.85;3.50;;;2.60;95.80;;;;;;6305435;22;20402;-81
2022/12/11 12:42:07;;;;;;;8.00;3.50;;;2.60;95.70;;;;;;6305507;22;20094;-82
2022/12/11 12:44:53;;;;;;;10.87;4.00;;;2.60;95.80;;;;;;6306026;22;20340;-84
2022/12/11 12:47:21;;;;;;;9.23;3.47;;;2.60;95.80;;;;;;6305620;22;20046;-86
2022/12/11 12:49:52;;;;;;;11.65;4.30;;;2.60;95.80;;;;;;6305966;22;20023;-82
2022/12/11 12:52:39;;;;;;;11.33;4.90;;;2.70;95.80;;;;;;6305072;22;20106;-83
2022/12/11 12:55:23;;;;;;;7.50;3.47;;;2.60;95.70;;;;;;6280573;22;20023;-93
2022/12/11 12:58:04;;;;;;;10.23;4.33;;;2.60;95.80;;;;;;6306489;22;20102;-90
2022/12/11 13:01:11;;;;;;;10.10;4.32;;;2.60;96.10;;;;;;6307497;22;20098;-91
2022/12/11 13:04:36;;;;;;;8.00;3.72;;;2.60;95.80;;;;;;6087400;23;20091;-88
2022/12/11 13:07:47;;;;;;;13.18;4.57;;;2.60;95.80;;;;;;6181570;23;20021;-83
2022/12/11 13:10:34;;;;;;;10.05;3.50;;;2.60;95.80;;;;;;6185816;23;20487;-86
2022/12/11 13:13:02;;;;;;;8.10;3.28;;;2.60;95.80;;;;;;6187071;23;20075;-82
2022/12/11 13:15:39;;;;;;;9.23;3.55;;;2.60;95.80;;;;;;6162981;23;20028;-88
2022/12/11 13:19:00;;;;;;;;;;;;;;;;;;;;;
2022/12/11 13:21:49;;;;;;;;;;;;;;;;;;;;;
2022/12/11 13:24:37;;;;;;;8.05;3.38;;;2.60;95.80;;;;;;6197630;23;20013;-93
2022/12/11 13:27:34;;;;;;;8.90;3.95;;;2.60;95.80;;;;;;6166592;23;20017;-90
2022/12/11 13:30:22;;;;;;;8.67;3.57;;;2.70;95.80;;;;;;6161214;23;20029;-95
2022/12/11 13:33:06;;;;;;;9.37;3.70;;;2.60;95.70;;;;;;6197266;23;20017;-92
2022/12/11 13:35:36;;;;;;;8.80;3.90;;;2.60;95.80;;;;;;6165199;23;20040;-91